Merchtem, Belgium
Current Conditions -  °F | °C
As of 2:20 PM on Sunday 21 Dec 2014 (Local Time) from EBBR Reporting Station
Drizzle Drizzle  
Wind Chill: 39°   Ceiling: 1600
Heat Index: 46°   Visibility: 4mi
Dew Point: 41°   Wind: 17mph
Humidity: 81%   Direction: 230°SW
Pressure: 30.33"   Gusts: NA
Location:  50.95°N, 4.23°E
Report Text: EBBR 211320Z 23015KT 7000 -DZ SCT011 BKN016 08/05 Q1027 TEMPO 4500 DZ BKN010
Loading
Personal Weather Stations






























Interactive Weather Map New forecast layout! Learn more

10-Day Weather Forecast

Advertisements
Track Severe Weather on mobile